Marengo, Ohio
Current Conditions -  °F | °C
As of 8:36 PM on Sunday 23 Nov 2014 (Local Time) from K4I3 Reporting Station
Light Rain Light Rain  
Wind Chill: 52°   Ceiling: 1400
Heat Index: 52°   Visibility: 7mi
Dew Point: 50°   Wind: 16mph
Humidity: 94%   Direction: 140°SE
Pressure: 29.52"   Gusts: 24mph
Location:  40.4°N, 82.81°W
Report Text: K4I3 240136Z AUTO 14014G21KT 7SM -RA SCT007 BKN014 OVC041 11/10 A2952 RMK AO2
Loading
Personal Weather Stations






























Interactive Weather Map New forecast layout! Learn more

10-Day Weather Forecast

Advertisements
Track Severe Weather on mobile